Time;durP1;ratioP1;P1;durP2;ratioP2;P2;SDS_P1;SDS_P2;PMS_P1;PMS_P2;Temp;Humidity;BMP_temperature;BMP_pressure;BME280_temperature;BME280_humidity;BME280_pressure;Samples;Min_cycle;Max_cycle;Signal;HPM_P1;HPM_P2
2022/04/24 00:00:58;;;;;;;17.75;7.53;;;;;;;;;;5042577;28;20041;-68
2022/04/24 00:03:23;;;;;;;26.70;8.00;;;;;;;;;;5034749;28;20057;-68
2022/04/24 00:05:48;;;;;;;16.63;7.57;;;;;;;;;;5046589;28;20063;-68
2022/04/24 00:08:14;;;;;;;22.35;7.55;;;;;;;;;;5034223;28;20477;-68
2022/04/24 00:10:39;;;;;;;17.05;6.90;;;;;;;;;;5038133;28;20045;-68
2022/04/24 00:13:05;;;;;;;23.17;7.38;;;;;;;;;;5034229;28;20029;-68
2022/04/24 00:15:30;;;;;;;20.58;7.00;;;;;;;;;;5033370;28;20045;-68
2022/04/24 00:17:56;;;;;;;20.35;7.57;;;;;;;;;;5034421;28;20072;-68
2022/04/24 00:20:21;;;;;;;17.08;7.47;;;;;;;;;;5031543;28;20370;-68
2022/04/24 00:22:46;;;;;;;17.55;7.60;;;;;;;;;;5034547;28;20484;-68
2022/04/24 00:25:12;;;;;;;19.52;8.45;;;;;;;;;;5033306;28;20045;-68
2022/04/24 00:27:37;;;;;;;18.80;8.02;;;;;;;;;;5044311;28;20438;-68
2022/04/24 00:30:03;;;;;;;22.00;8.00;;;;;;;;;;5037727;28;20029;-68
2022/04/24 00:32:29;;;;;;;18.83;6.65;;;;;;;;;;5041444;28;20032;-68
2022/04/24 00:34:54;;;;;;;22.33;8.25;;;;;;;;;;5032890;28;20042;-68
2022/04/24 00:37:20;;;;;;;27.50;9.07;;;;;;;;;;5034309;28;20029;-69
2022/04/24 00:39:45;;;;;;;21.45;7.72;;;;;;;;;;5036440;28;20056;-68
2022/04/24 00:42:10;;;;;;;28.45;8.23;;;;;;;;;;5038183;28;20402;-68
2022/04/24 00:44:36;;;;;;;25.58;7.00;;;;;;;;;;5037320;28;20449;-69
2022/04/24 00:47:20;;;;;;;23.50;8.73;;;;;;;;;;5042487;28;20047;-68
2022/04/24 00:49:46;;;;;;;20.50;8.38;;;;;;;;;;5057888;28;20039;-68
2022/04/24 00:52:13;;;;;;;24.73;8.25;;;;;;;;;;5047944;28;20033;-68
2022/04/24 00:54:38;;;;;;;18.15;8.32;;;;;;;;;;5035982;28;20037;-68
2022/04/24 00:57:08;;;;;;;20.98;6.93;;;;;;;;;;5040162;28;20033;-68
2022/04/24 00:59:33;;;;;;;23.30;7.95;;;;;;;;;;5037935;28;20095;-68
2022/04/24 01:01:59;;;;;;;18.23;8.65;;;;;;;;;;5037833;28;20036;-68
2022/04/24 01:04:25;;;;;;;19.60;8.75;;;;;;;;;;5036867;28;20473;-68
2022/04/24 01:06:50;;;;;;;22.42;8.93;;;;;;;;;;5037425;28;20044;-69
2022/04/24 01:09:20;;;;;;;24.02;9.02;;;;;;;;;;5037681;28;20083;-68
2022/04/24 01:11:47;;;;;;;27.17;7.78;;;;;;;;;;5050138;28;20028;-68
2022/04/24 01:14:16;;;;;;;20.60;7.97;;;;;;;;;;5043883;28;20057;-69
2022/04/24 01:16:42;;;;;;;26.65;8.25;;;;;;;;;;5040731;28;20391;-68
2022/04/24 01:19:07;;;;;;;24.88;7.85;;;;;;;;;;5040283;28;20045;-68
2022/04/24 01:21:34;;;;;;;20.60;8.65;;;;;;;;;;5039679;28;20033;-68
2022/04/24 01:24:00;;;;;;;22.63;8.07;;;;;;;;;;5036530;28;20026;-68
2022/04/24 01:26:25;;;;;;;15.75;7.00;;;;;;;;;;5048716;28;20040;-68
2022/04/24 01:28:51;;;;;;;17.40;6.97;;;;;;;;;;5036178;28;20077;-68
2022/04/24 01:31:17;;;;;;;26.27;7.50;;;;;;;;;;5043990;28;20384;-68
2022/04/24 01:33:42;;;;;;;22.55;8.20;;;;;;;;;;5036622;28;20037;-69
2022/04/24 01:36:08;;;;;;;17.77;7.10;;;;;;;;;;5035973;28;20057;-69
2022/04/24 01:38:33;;;;;;;27.83;8.10;;;;;;;;;;5037092;28;20048;-68
2022/04/24 01:40:59;;;;;;;28.05;7.50;;;;;;;;;;5045250;28;20037;-68
2022/04/24 01:43:24;;;;;;;22.02;7.45;;;;;;;;;;5038803;28;20084;-68
2022/04/24 01:45:50;;;;;;;18.75;7.70;;;;;;;;;;5040223;28;20469;-68
2022/04/24 01:48:15;;;;;;;21.15;7.55;;;;;;;;;;5041267;28;20167;-69
2022/04/24 01:50:40;;;;;;;20.45;7.78;;;;;;;;;;5038242;28;20496;-69
2022/04/24 01:53:06;;;;;;;15.82;7.50;;;;;;;;;;5036887;28;20382;-68
2022/04/24 01:55:31;;;;;;;22.98;7.43;;;;;;;;;;5036583;28;20052;-68
2022/04/24 01:57:56;;;;;;;26.60;7.57;;;;;;;;;;5036880;28;20042;-68
2022/04/24 02:00:22;;;;;;;27.05;7.55;;;;;;;;;;5040484;28;20045;-68
2022/04/24 02:02:47;;;;;;;25.60;7.90;;;;;;;;;;5036879;28;20037;-68
2022/04/24 02:05:13;;;;;;;21.20;7.68;;;;;;;;;;5035378;28;20041;-68
2022/04/24 02:07:39;;;;;;;24.88;6.70;;;;;;;;;;5036832;28;20037;-68
2022/04/24 02:10:05;;;;;;;17.45;7.50;;;;;;;;;;5040030;28;20035;-69
2022/04/24 02:12:30;;;;;;;24.20;6.72;;;;;;;;;;5042354;28;20038;-68
2022/04/24 02:14:56;;;;;;;20.38;7.38;;;;;;;;;;5038828;28;20033;-68
2022/04/24 02:17:22;;;;;;;17.90;6.40;;;;;;;;;;5037487;28;20044;-68
2022/04/24 02:19:47;;;;;;;14.68;7.30;;;;;;;;;;5037143;28;20033;-68
2022/04/24 02:22:12;;;;;;;22.58;7.43;;;;;;;;;;5037592;28;20116;-68
2022/04/24 02:24:38;;;;;;;20.60;7.95;;;;;;;;;;5036301;28;20045;-68
2022/04/24 02:27:04;;;;;;;9.85;5.40;;;;;;;;;;5037265;28;20034;-68
2022/04/24 02:29:29;;;;;;;17.17;7.38;;;;;;;;;;5035019;28;20026;-68
2022/04/24 02:31:55;;;;;;;26.42;7.13;;;;;;;;;;5036346;28;20060;-68
2022/04/24 02:34:20;;;;;;;15.15;5.32;;;;;;;;;;5035014;28;20030;-68
2022/04/24 02:36:45;;;;;;;21.85;8.10;;;;;;;;;;5036269;28;20033;-68
2022/04/24 02:39:11;;;;;;;18.42;7.15;;;;;;;;;;5035111;28;20045;-68
2022/04/24 02:41:36;;;;;;;18.40;7.82;;;;;;;;;;5044846;28;20488;-69
2022/04/24 02:44:03;;;;;;;25.13;8.10;;;;;;;;;;5036510;28;20038;-68
2022/04/24 02:46:28;;;;;;;20.38;6.90;;;;;;;;;;5036188;28;20136;-68
2022/04/24 02:48:53;;;;;;;20.17;8.32;;;;;;;;;;5036045;28;20121;-68
2022/04/24 02:51:19;;;;;;;19.70;9.23;;;;;;;;;;5035783;28;20041;-68
2022/04/24 02:53:44;;;;;;;18.00;8.55;;;;;;;;;;5034864;28;20029;-69
2022/04/24 02:56:10;;;;;;;15.80;7.90;;;;;;;;;;5037072;28;20396;-68
2022/04/24 02:58:38;;;;;;;26.40;8.23;;;;;;;;;;5035875;28;20036;-68
2022/04/24 03:01:03;;;;;;;23.08;7.97;;;;;;;;;;5040090;28;20045;-68
2022/04/24 03:03:29;;;;;;;26.52;9.20;;;;;;;;;;5035840;28;20128;-68
2022/04/24 03:05:54;;;;;;;26.23;9.30;;;;;;;;;;5034024;28;20037;-68
2022/04/24 03:08:20;;;;;;;28.35;9.10;;;;;;;;;;5035612;28;20083;-68
2022/04/24 03:10:45;;;;;;;25.92;7.30;;;;;;;;;;5033196;28;20370;-68
2022/04/24 03:13:11;;;;;;;30.17;8.93;;;;;;;;;;5044690;28;20030;-68
2022/04/24 03:15:38;;;;;;;25.52;8.10;;;;;;;;;;5033263;28;20033;-68
2022/04/24 03:18:06;;;;;;;25.73;8.05;;;;;;;;;;5035435;28;20084;-68
2022/04/24 03:20:32;;;;;;;23.40;8.27;;;;;;;;;;5034037;28;20489;-68
2022/04/24 03:22:57;;;;;;;17.98;8.68;;;;;;;;;;5035358;28;20050;-68
2022/04/24 03:25:23;;;;;;;22.08;8.10;;;;;;;;;;5040277;28;20038;-68
2022/04/24 03:27:48;;;;;;;26.00;9.20;;;;;;;;;;5035296;28;20030;-68
2022/04/24 03:30:14;;;;;;;28.38;9.05;;;;;;;;;;5032953;28;20167;-68
2022/04/24 03:32:39;;;;;;;21.80;8.55;;;;;;;;;;5035117;28;20041;-68
2022/04/24 03:35:08;;;;;;;33.13;10.13;;;;;;;;;;5035421;28;20354;-68
2022/04/24 03:37:34;;;;;;;18.48;6.85;;;;;;;;;;5037691;28;20037;-68
2022/04/24 03:40:00;;;;;;;26.35;8.95;;;;;;;;;;5036007;28;20094;-68
2022/04/24 03:42:26;;;;;;;25.23;10.05;;;;;;;;;;5038818;28;20033;-68
2022/04/24 03:44:58;;;;;;;22.42;7.97;;;;;;;;;;5033988;28;20366;-68
2022/04/24 03:47:23;;;;;;;19.63;8.60;;;;;;;;;;5034834;28;20041;-68
2022/04/24 03:49:49;;;;;;;21.95;8.82;;;;;;;;;;5033920;28;20033;-68
2022/04/24 03:52:14;;;;;;;23.52;7.97;;;;;;;;;;5035086;28;20033;-68
2022/04/24 03:54:40;;;;;;;23.67;9.10;;;;;;;;;;5034877;28;20120;-68
2022/04/24 03:57:05;;;;;;;23.70;8.10;;;;;;;;;;5041787;28;20037;-68
2022/04/24 03:59:31;;;;;;;30.40;9.18;;;;;;;;;;5035622;28;20044;-68
2022/04/24 04:01:56;;;;;;;26.02;8.38;;;;;;;;;;5038713;28;20040;-68
2022/04/24 04:04:22;;;;;;;18.25;8.90;;;;;;;;;;5038056;28;20083;-68
2022/04/24 04:06:47;;;;;;;20.70;8.68;;;;;;;;;;5034162;28;20033;-68
2022/04/24 04:09:14;;;;;;;23.75;8.50;;;;;;;;;;5034653;28;20041;-68
2022/04/24 04:11:39;;;;;;;26.90;10.07;;;;;;;;;;5039122;28;20103;-68
2022/04/24 04:14:04;;;;;;;28.98;9.13;;;;;;;;;;5042383;28;20529;-68
2022/04/24 04:16:30;;;;;;;30.67;9.10;;;;;;;;;;5034050;28;20037;-68
2022/04/24 04:18:55;;;;;;;30.08;10.38;;;;;;;;;;5032705;28;20100;-68
2022/04/24 04:21:21;;;;;;;16.70;8.50;;;;;;;;;;5034374;28;20029;-68
2022/04/24 04:23:46;;;;;;;25.08;8.68;;;;;;;;;;5033131;28;20481;-69
2022/04/24 04:26:12;;;;;;;25.27;10.27;;;;;;;;;;5037399;28;20029;-68
2022/04/24 04:28:37;;;;;;;29.17;8.35;;;;;;;;;;5034427;28;20040;-68
2022/04/24 04:31:03;;;;;;;28.98;9.05;;;;;;;;;;5032972;28;20461;-68
2022/04/24 04:33:28;;;;;;;21.25;8.13;;;;;;;;;;5036012;28;20079;-68
2022/04/24 04:35:54;;;;;;;26.13;6.68;;;;;;;;;;5033160;28;20033;-68
2022/04/24 04:38:19;;;;;;;22.85;8.65;;;;;;;;;;5034312;28;20037;-68
2022/04/24 04:40:44;;;;;;;21.52;7.95;;;;;;;;;;5041596;28;20033;-68
2022/04/24 04:43:10;;;;;;;27.15;8.75;;;;;;;;;;5040081;28;20033;-68
2022/04/24 04:45:35;;;;;;;25.10;8.75;;;;;;;;;;5038644;28;20040;-68
2022/04/24 04:48:00;;;;;;;25.65;9.80;;;;;;;;;;5033904;28;20033;-68
2022/04/24 04:50:26;;;;;;;19.63;7.93;;;;;;;;;;5033153;28;20043;-68
2022/04/24 04:52:51;;;;;;;21.48;9.05;;;;;;;;;;5034091;28;20045;-68
2022/04/24 04:55:17;;;;;;;19.75;7.85;;;;;;;;;;5036060;28;20056;-68
2022/04/24 04:57:43;;;;;;;21.33;8.30;;;;;;;;;;5034427;28;20045;-68
2022/04/24 05:00:09;;;;;;;25.42;9.10;;;;;;;;;;5033271;28;20049;-68
2022/04/24 05:02:36;;;;;;;33.50;8.43;;;;;;;;;;5034354;28;20036;-68
2022/04/24 05:05:03;;;;;;;26.20;7.85;;;;;;;;;;5032764;28;20041;-68
2022/04/24 05:07:28;;;;;;;25.65;9.15;;;;;;;;;;5033684;28;20069;-68
2022/04/24 05:09:53;;;;;;;17.58;7.38;;;;;;;;;;5032435;28;20479;-68
2022/04/24 05:12:19;;;;;;;21.85;8.15;;;;;;;;;;5033180;28;20044;-68
2022/04/24 05:14:44;;;;;;;24.25;7.60;;;;;;;;;;5041922;28;20117;-68
2022/04/24 05:17:09;;;;;;;19.27;7.43;;;;;;;;;;5033605;28;20030;-68
2022/04/24 05:19:35;;;;;;;26.70;8.95;;;;;;;;;;5032957;28;20034;-68
2022/04/24 05:22:00;;;;;;;21.88;6.60;;;;;;;;;;5033680;28;20116;-68
2022/04/24 05:24:26;;;;;;;27.63;8.38;;;;;;;;;;5034005;28;20116;-68
2022/04/24 05:26:52;;;;;;;27.40;8.23;;;;;;;;;;5033793;28;20029;-68
2022/04/24 05:29:17;;;;;;;14.93;6.60;;;;;;;;;;5034278;28;20499;-68
2022/04/24 05:31:42;;;;;;;21.50;7.78;;;;;;;;;;5039835;28;20108;-68
2022/04/24 05:34:08;;;;;;;24.67;7.88;;;;;;;;;;5047330;28;20473;-68
2022/04/24 05:36:33;;;;;;;23.65;7.97;;;;;;;;;;5037110;28;20116;-68
2022/04/24 05:38:59;;;;;;;30.27;8.00;;;;;;;;;;5037810;28;20033;-68
2022/04/24 05:41:24;;;;;;;12.05;4.97;;;;;;;;;;5037284;28;20423;-68
2022/04/24 05:43:50;;;;;;;20.67;6.95;;;;;;;;;;5040650;28;20041;-69
2022/04/24 05:46:15;;;;;;;35.95;8.07;;;;;;;;;;5046224;28;20024;-68
2022/04/24 05:48:40;;;;;;;19.13;6.63;;;;;;;;;;5036720;28;20044;-68
2022/04/24 05:51:06;;;;;;;24.02;7.60;;;;;;;;;;5036071;28;20099;-68
2022/04/24 05:53:31;;;;;;;17.60;5.82;;;;;;;;;;5041143;28;20047;-68
2022/04/24 05:55:57;;;;;;;24.63;7.63;;;;;;;;;;5035912;28;20480;-68
2022/04/24 05:58:22;;;;;;;15.52;5.55;;;;;;;;;;5041069;28;20120;-68
2022/04/24 06:00:48;;;;;;;25.98;6.60;;;;;;;;;;5038361;28;20057;-68
2022/04/24 06:03:13;;;;;;;22.38;7.05;;;;;;;;;;5037054;28;20473;-68
2022/04/24 06:05:38;;;;;;;15.95;5.97;;;;;;;;;;5035733;28;20048;-68
2022/04/24 06:08:04;;;;;;;20.83;7.47;;;;;;;;;;5038245;28;20029;-68
2022/04/24 06:10:30;;;;;;;12.77;4.97;;;;;;;;;;5044388;28;20060;-68
2022/04/24 06:12:56;;;;;;;24.67;6.60;;;;;;;;;;5036630;28;20044;-68
2022/04/24 06:15:27;;;;;;;19.15;5.95;;;;;;;;;;5045308;28;20045;-68
2022/04/24 06:17:57;;;;;;;24.10;6.28;;;;;;;;;;5041744;28;20037;-68
2022/04/24 06:20:25;;;;;;;31.73;7.75;;;;;;;;;;5035707;28;20044;-68
2022/04/24 06:22:52;;;;;;;19.60;7.07;;;;;;;;;;5035855;28;20029;-68
2022/04/24 06:25:20;;;;;;;10.10;4.45;;;;;;;;;;5035528;28;20120;-68
2022/04/24 06:27:46;;;;;;;27.70;7.57;;;;;;;;;;5036055;28;20477;-68
2022/04/24 06:30:12;;;;;;;21.83;6.97;;;;;;;;;;5036029;28;20033;-68
2022/04/24 06:32:39;;;;;;;23.13;6.20;;;;;;;;;;5038229;28;20029;-68
2022/04/24 06:35:06;;;;;;;23.48;6.68;;;;;;;;;;5034782;28;20124;-69
2022/04/24 06:37:31;;;;;;;18.10;5.10;;;;;;;;;;5052949;28;20029;-68
2022/04/24 06:39:57;;;;;;;18.20;6.47;;;;;;;;;;5043698;28;20488;-68
2022/04/24 06:42:22;;;;;;;22.60;7.25;;;;;;;;;;5035107;28;20425;-68
2022/04/24 06:44:48;;;;;;;25.48;7.25;;;;;;;;;;5034870;28;20369;-68
2022/04/24 06:47:13;;;;;;;21.10;6.50;;;;;;;;;;5034918;28;20029;-69
2022/04/24 06:49:38;;;;;;;17.33;6.00;;;;;;;;;;5035028;28;20087;-69
2022/04/24 06:52:04;;;;;;;22.42;7.35;;;;;;;;;;5034978;28;20079;-68
2022/04/24 06:54:30;;;;;;;21.75;5.60;;;;;;;;;;5034540;28;20448;-68
2022/04/24 06:56:56;;;;;;;19.00;6.10;;;;;;;;;;5034797;28;20045;-68
2022/04/24 06:59:21;;;;;;;19.15;6.95;;;;;;;;;;5036995;28;20029;-68
2022/04/24 07:01:46;;;;;;;20.35;6.82;;;;;;;;;;5039761;28;20030;-68
2022/04/24 07:04:12;;;;;;;18.98;6.03;;;;;;;;;;5037571;28;20465;-68
2022/04/24 07:06:37;;;;;;;20.83;6.82;;;;;;;;;;5041040;28;20037;-68
2022/04/24 07:09:02;;;;;;;20.15;6.68;;;;;;;;;;5034506;28;20037;-68
2022/04/24 07:11:28;;;;;;;14.65;5.55;;;;;;;;;;5044133;28;20432;-68
2022/04/24 07:13:54;;;;;;;17.10;4.38;;;;;;;;;;5050939;28;20038;-68
2022/04/24 07:16:19;;;;;;;18.88;6.88;;;;;;;;;;5034366;28;20018;-68
2022/04/24 07:18:44;;;;;;;25.63;5.97;;;;;;;;;;5034335;28;20045;-68
2022/04/24 07:21:10;;;;;;;22.45;6.10;;;;;;;;;;5034364;28;20377;-68
2022/04/24 07:23:37;;;;;;;20.65;6.28;;;;;;;;;;5033972;28;20392;-68
2022/04/24 07:26:02;;;;;;;20.13;5.88;;;;;;;;;;5049213;28;20159;-68
2022/04/24 07:28:28;;;;;;;21.90;5.93;;;;;;;;;;5034605;28;20128;-68
2022/04/24 07:30:53;;;;;;;17.25;5.45;;;;;;;;;;5034058;28;20175;-69
2022/04/24 07:33:18;;;;;;;17.85;6.35;;;;;;;;;;5033935;28;20052;-68
2022/04/24 07:35:44;;;;;;;20.42;5.55;;;;;;;;;;5034214;28;20057;-68
2022/04/24 07:38:09;;;;;;;12.25;4.78;;;;;;;;;;5034818;28;20029;-68
2022/04/24 07:40:36;;;;;;;12.00;5.10;;;;;;;;;;5045846;28;20045;-69
2022/04/24 07:43:04;;;;;;;14.18;5.20;;;;;;;;;;5037201;28;20504;-69
2022/04/24 07:45:31;;;;;;;26.25;7.13;;;;;;;;;;5034068;28;20072;-69
2022/04/24 07:47:58;;;;;;;23.88;5.88;;;;;;;;;;5033573;28;20040;-69
2022/04/24 07:50:25;;;;;;;14.05;4.72;;;;;;;;;;5033741;28;20033;-68
2022/04/24 07:52:52;;;;;;;23.45;6.40;;;;;;;;;;5033763;28;20029;-68
2022/04/24 07:55:19;;;;;;;20.80;6.30;;;;;;;;;;5033340;28;20533;-69
2022/04/24 07:57:46;;;;;;;15.32;5.25;;;;;;;;;;5039020;28;20029;-69
2022/04/24 08:00:13;;;;;;;19.33;5.07;;;;;;;;;;5033851;28;20053;-69
2022/04/24 08:02:50;;;;;;;14.95;4.97;;;;;;;;;;5039340;28;20033;-69
2022/04/24 08:05:25;;;;;;;17.73;5.68;;;;;;;;;;5033434;28;20034;-68
2022/04/24 08:07:51;;;;;;;19.90;5.15;;;;;;;;;;5035898;28;20041;-69
2022/04/24 08:10:17;;;;;;;17.00;4.97;;;;;;;;;;5040265;28;20040;-69
2022/04/24 08:12:43;;;;;;;17.17;5.32;;;;;;;;;;5036822;28;20512;-69
2022/04/24 08:15:09;;;;;;;23.33;5.53;;;;;;;;;;5041130;28;20065;-69
2022/04/24 08:17:34;;;;;;;17.13;4.97;;;;;;;;;;5041219;28;20047;-68
2022/04/24 08:20:00;;;;;;;10.98;4.72;;;;;;;;;;5034370;28;20042;-69
2022/04/24 08:22:25;;;;;;;21.38;5.32;;;;;;;;;;5039508;28;20128;-68
2022/04/24 08:24:51;;;;;;;17.35;5.03;;;;;;;;;;5032692;28;20040;-69
2022/04/24 08:27:16;;;;;;;17.50;4.82;;;;;;;;;;5032094;28;20413;-69
2022/04/24 08:29:43;;;;;;;16.60;4.75;;;;;;;;;;5032195;28;20044;-68
2022/04/24 08:32:08;;;;;;;13.52;4.40;;;;;;;;;;5032075;28;20163;-69
2022/04/24 08:34:33;;;;;;;16.58;4.82;;;;;;;;;;5032980;28;20120;-69
2022/04/24 08:36:59;;;;;;;19.75;5.43;;;;;;;;;;5030505;28;20038;-67
2022/04/24 08:39:24;;;;;;;17.48;5.15;;;;;;;;;;5032377;28;20080;-69
2022/04/24 08:41:50;;;;;;;15.02;5.35;;;;;;;;;;5031712;28;20037;-70
2022/04/24 08:44:15;;;;;;;13.13;4.47;;;;;;;;;;5032562;28;20033;-69
2022/04/24 08:46:43;;;;;;;16.80;5.90;;;;;;;;;;5032587;28;20041;-67
2022/04/24 08:49:09;;;;;;;13.60;4.60;;;;;;;;;;5033127;28;20065;-67
2022/04/24 08:51:36;;;;;;;16.08;5.20;;;;;;;;;;5048461;28;20567;-67
2022/04/24 08:54:02;;;;;;;15.85;5.57;;;;;;;;;;5032598;28;20504;-67
2022/04/24 08:56:27;;;;;;;15.23;5.60;;;;;;;;;;5032989;28;20048;-67
2022/04/24 08:58:53;;;;;;;16.10;5.03;;;;;;;;;;5030465;28;20115;-68
2022/04/24 09:01:19;;;;;;;14.52;5.57;;;;;;;;;;5032970;28;20545;-67
2022/04/24 09:03:44;;;;;;;17.40;5.88;;;;;;;;;;5033915;28;20069;-69
2022/04/24 09:06:22;;;;;;;12.93;5.05;;;;;;;;;;5036842;28;20041;-69
2022/04/24 09:08:48;;;;;;;13.85;5.47;;;;;;;;;;5036861;28;20041;-69
2022/04/24 09:11:13;;;;;;;14.85;5.63;;;;;;;;;;5036665;28;20037;-69
2022/04/24 09:16:37;;;;;;;14.05;5.53;;;;;;;;;;5029308;28;20091;-69
2022/04/24 09:19:03;;;;;;;17.00;5.85;;;;;;;;;;5031877;28;20040;-69
2022/04/24 09:21:29;;;;;;;17.98;5.60;;;;;;;;;;5036741;28;20034;-69
2022/04/24 09:23:59;;;;;;;13.75;5.75;;;;;;;;;;5036322;28;20392;-69
2022/04/24 09:26:25;;;;;;;16.60;5.63;;;;;;;;;;5034582;28;20048;-68
2022/04/24 09:28:50;;;;;;;11.50;4.97;;;;;;;;;;5034954;28;20045;-68
2022/04/24 09:31:15;;;;;;;18.55;5.35;;;;;;;;;;5051200;28;20025;-67
2022/04/24 09:33:42;;;;;;;15.15;5.15;;;;;;;;;;5036179;28;20056;-67
2022/04/24 09:36:08;;;;;;;16.42;5.60;;;;;;;;;;5035873;28;20041;-67
2022/04/24 09:38:44;;;;;;;11.45;4.97;;;;;;;;;;5036262;28;20051;-67
2022/04/24 09:41:23;;;;;;;12.93;4.65;;;;;;;;;;5036152;28;20041;-67
2022/04/24 09:43:49;;;;;;;14.48;5.13;;;;;;;;;;5049110;28;20116;-67
2022/04/24 09:46:28;;;;;;;13.40;5.03;;;;;;;;;;5035439;28;20095;-67
2022/04/24 09:48:57;;;;;;;15.80;4.78;;;;;;;;;;5034319;28;20036;-67
2022/04/24 09:51:22;;;;;;;14.48;5.55;;;;;;;;;;5033046;28;20041;-69
2022/04/24 09:53:48;;;;;;;15.27;5.25;;;;;;;;;;5035396;28;20056;-69
2022/04/24 09:56:15;;;;;;;17.25;6.53;;;;;;;;;;5035604;28;20033;-69
2022/04/24 09:58:41;;;;;;;18.73;5.32;;;;;;;;;;5035470;28;20068;-68
2022/04/24 10:01:08;;;;;;;14.32;5.15;;;;;;;;;;5035045;28;20041;-69
2022/04/24 10:03:37;;;;;;;14.23;5.15;;;;;;;;;;5035413;28;20064;-69
2022/04/24 10:06:04;;;;;;;15.43;5.40;;;;;;;;;;5035478;28;20041;-69
2022/04/24 10:08:32;;;;;;;12.77;4.97;;;;;;;;;;5035193;28;20025;-69
2022/04/24 10:11:02;;;;;;;14.10;5.55;;;;;;;;;;5051101;28;20420;-69
2022/04/24 10:13:27;;;;;;;14.80;5.57;;;;;;;;;;5031968;28;20042;-69
2022/04/24 10:16:04;;;;;;;11.88;5.63;;;;;;;;;;5034444;28;20045;-69
2022/04/24 10:18:39;;;;;;;14.70;5.38;;;;;;;;;;5034051;28;20481;-69
2022/04/24 10:21:38;;;;;;;13.88;5.60;;;;;;;;;;5035535;28;20045;-69
2022/04/24 10:24:10;;;;;;;12.45;5.18;;;;;;;;;;5024084;28;20102;-69
2022/04/24 10:26:37;;;;;;;13.43;5.40;;;;;;;;;;5035682;28;20113;-69
2022/04/24 10:29:13;;;;;;;12.60;5.30;;;;;;;;;;5035369;28;20053;-69
2022/04/24 10:31:46;;;;;;;7.80;3.97;;;;;;;;;;5035364;28;20087;-69
2022/04/24 10:34:20;;;;;;;12.20;4.65;;;;;;;;;;5035238;28;20159;-69
2022/04/24 10:36:59;;;;;;;13.27;4.47;;;;;;;;;;5034869;28;20477;-69
2022/04/24 10:39:29;;;;;;;13.45;5.50;;;;;;;;;;5035189;28;20072;-68
2022/04/24 10:41:59;;;;;;;13.23;5.28;;;;;;;;;;5035468;28;20039;-69
2022/04/24 10:44:25;;;;;;;12.98;4.75;;;;;;;;;;5034827;28;20088;-68
2022/04/24 10:46:53;;;;;;;15.82;5.45;;;;;;;;;;5035094;28;20069;-68
2022/04/24 10:49:19;;;;;;;11.30;4.43;;;;;;;;;;5035127;28;20038;-68
2022/04/24 10:52:05;;;;;;;13.95;5.28;;;;;;;;;;5034794;28;20044;-68
2022/04/24 10:54:32;;;;;;;17.52;5.40;;;;;;;;;;5034218;28;20049;-68
2022/04/24 10:56:58;;;;;;;10.90;4.78;;;;;;;;;;5034658;28;20793;-68
2022/04/24 10:59:23;;;;;;;12.38;4.90;;;;;;;;;;5033432;28;20045;-68
2022/04/24 11:01:53;;;;;;;10.00;4.75;;;;;;;;;;5034844;28;20501;-68
2022/04/24 11:04:20;;;;;;;14.05;5.30;;;;;;;;;;5034609;28;20044;-68
2022/04/24 11:06:56;;;;;;;13.13;5.25;;;;;;;;;;5034615;28;20033;-68
2022/04/24 11:09:22;;;;;;;11.00;5.35;;;;;;;;;;5034667;28;20045;-68
2022/04/24 11:11:52;;;;;;;15.73;5.55;;;;;;;;;;5034556;28;20030;-68
2022/04/24 11:14:20;;;;;;;12.20;4.70;;;;;;;;;;5034506;28;20061;-68
2022/04/24 11:16:57;;;;;;;16.20;5.00;;;;;;;;;;5034352;28;20048;-68
2022/04/24 11:19:25;;;;;;;11.98;5.03;;;;;;;;;;5034447;28;20036;-68
2022/04/24 11:21:58;;;;;;;15.93;5.68;;;;;;;;;;5034454;28;20112;-68
2022/04/24 11:24:28;;;;;;;12.13;4.80;;;;;;;;;;5034045;28;20041;-68
2022/04/24 11:26:57;;;;;;;6.90;3.92;;;;;;;;;;5033997;28;20041;-68
2022/04/24 11:29:22;;;;;;;9.55;4.05;;;;;;;;;;5034232;28;20370;-68
2022/04/24 11:31:49;;;;;;;14.20;4.95;;;;;;;;;;5033746;28;20039;-68
2022/04/24 11:34:18;;;;;;;13.60;4.68;;;;;;;;;;5034629;28;20500;-68
2022/04/24 11:36:44;;;;;;;13.65;4.82;;;;;;;;;;5043906;28;20033;-68
2022/04/24 11:39:10;;;;;;;11.00;4.80;;;;;;;;;;5040532;28;20031;-68
2022/04/24 11:41:35;;;;;;;12.18;4.13;;;;;;;;;;5035745;28;20041;-68
2022/04/24 11:44:02;;;;;;;9.90;4.15;;;;;;;;;;5039966;28;20040;-68
2022/04/24 11:51:58;;;;;;;10.93;4.78;;;;;;;;;;5035000;28;20068;-68
2022/04/24 11:54:24;;;;;;;9.68;4.95;;;;;;;;;;5033486;28;20422;-68
2022/04/24 11:56:53;;;;;;;8.15;3.85;;;;;;;;;;5036243;28;20037;-68
2022/04/24 11:59:20;;;;;;;10.43;4.20;;;;;;;;;;5033500;28;20049;-68
2022/04/24 12:01:57;;;;;;;10.07;4.72;;;;;;;;;;5034347;28;20505;-68
2022/04/24 12:04:26;;;;;;;9.30;4.60;;;;;;;;;;5036647;28;20033;-68
2022/04/24 12:06:59;;;;;;;9.13;4.30;;;;;;;;;;5034750;28;20044;-68
2022/04/24 12:09:25;;;;;;;12.05;4.88;;;;;;;;;;5024589;28;20166;-68
2022/04/24 12:11:50;;;;;;;8.15;3.72;;;;;;;;;;5044055;28;20116;-68
2022/04/24 12:14:17;;;;;;;9.43;4.47;;;;;;;;;;5036444;28;20056;-69
2022/04/24 12:16:47;;;;;;;11.30;4.53;;;;;;;;;;5034355;28;20087;-68
2022/04/24 12:19:17;;;;;;;8.00;3.67;;;;;;;;;;5040624;28;20041;-68
2022/04/24 12:21:49;;;;;;;17.92;4.65;;;;;;;;;;5033254;28;20060;-68
2022/04/24 12:24:15;;;;;;;9.85;3.92;;;;;;;;;;5032916;28;20599;-69
2022/04/24 12:26:53;;;;;;;8.90;4.10;;;;;;;;;;5033337;28;20104;-68
2022/04/24 12:29:19;;;;;;;8.07;3.88;;;;;;;;;;5038108;28;20037;-68
2022/04/24 12:31:46;;;;;;;10.98;3.97;;;;;;;;;;5039568;28;20060;-68
2022/04/24 12:34:11;;;;;;;12.43;4.35;;;;;;;;;;5039227;28;20448;-68
2022/04/24 12:36:50;;;;;;;9.38;4.38;;;;;;;;;;5033907;28;20029;-68
2022/04/24 12:39:23;;;;;;;7.60;4.00;;;;;;;;;;5029181;28;20644;-68
2022/04/24 12:41:49;;;;;;;10.32;4.32;;;;;;;;;;5030279;28;20545;-68
2022/04/24 12:44:14;;;;;;;11.10;4.15;;;;;;;;;;5035426;28;20116;-68
2022/04/24 12:46:40;;;;;;;7.38;3.97;;;;;;;;;;5031212;28;20032;-68
2022/04/24 12:49:07;;;;;;;9.13;3.85;;;;;;;;;;5037644;28;20515;-68
2022/04/24 12:51:32;;;;;;;6.68;3.58;;;;;;;;;;5039388;28;20037;-68
2022/04/24 12:54:01;;;;;;;9.18;3.70;;;;;;;;;;5036769;28;20095;-68
2022/04/24 12:56:26;;;;;;;8.80;3.63;;;;;;;;;;5047718;28;20482;-68
2022/04/24 12:58:52;;;;;;;9.70;4.32;;;;;;;;;;5033896;28;20034;-68
2022/04/24 13:01:18;;;;;;;9.55;4.05;;;;;;;;;;5032339;28;20175;-68
2022/04/24 13:03:47;;;;;;;7.80;4.07;;;;;;;;;;5033339;28;20044;-68
2022/04/24 13:06:14;;;;;;;8.80;3.88;;;;;;;;;;5039049;28;20124;-68
2022/04/24 13:08:40;;;;;;;8.75;3.97;;;;;;;;;;5032901;28;20026;-68
2022/04/24 13:11:05;;;;;;;8.85;3.78;;;;;;;;;;5032636;28;20098;-68
2022/04/24 13:13:34;;;;;;;7.63;3.70;;;;;;;;;;5032801;28;20029;-68
2022/04/24 13:18:44;;;;;;;9.85;3.80;;;;;;;;;;5032851;28;20061;-68
2022/04/24 13:21:09;;;;;;;6.72;3.60;;;;;;;;;;5032713;28;20030;-68
2022/04/24 13:23:35;;;;;;;12.38;3.70;;;;;;;;;;5032754;28;20045;-68
2022/04/24 13:26:02;;;;;;;10.05;3.63;;;;;;;;;;5032691;28;20086;-68
2022/04/24 13:28:28;;;;;;;12.30;3.78;;;;;;;;;;5029632;28;20163;-68
2022/04/24 13:30:54;;;;;;;11.88;3.85;;;;;;;;;;5030043;28;20041;-68
2022/04/24 13:33:20;;;;;;;9.45;3.67;;;;;;;;;;5031318;28;20045;-68
2022/04/24 13:35:46;;;;;;;8.68;3.67;;;;;;;;;;5032701;28;20037;-68
2022/04/24 13:38:20;;;;;;;13.38;4.40;;;;;;;;;;5047966;28;20048;-68
2022/04/24 13:41:02;;;;;;;7.47;3.35;;;;;;;;;;5032913;28;20029;-68
2022/04/24 13:43:28;;;;;;;8.27;3.20;;;;;;;;;;5030343;28;20033;-68
2022/04/24 13:45:54;;;;;;;9.52;3.10;;;;;;;;;;5032652;28;20037;-68
2022/04/24 13:48:26;;;;;;;8.45;3.50;;;;;;;;;;5031315;28;20041;-68
2022/04/24 13:50:54;;;;;;;8.25;4.15;;;;;;;;;;5035438;28;20056;-68
2022/04/24 13:53:20;;;;;;;11.75;3.50;;;;;;;;;;5035958;28;20363;-68
2022/04/24 13:55:46;;;;;;;8.02;3.25;;;;;;;;;;5036948;28;20389;-68
2022/04/24 13:58:11;;;;;;;6.47;3.80;;;;;;;;;;5042221;28;20037;-68
2022/04/24 14:00:36;;;;;;;7.30;3.20;;;;;;;;;;5039974;28;20049;-68
2022/04/24 14:03:03;;;;;;;5.43;3.55;;;;;;;;;;5040551;28;20048;-68
2022/04/24 14:05:29;;;;;;;8.90;3.20;;;;;;;;;;5039290;28;20435;-68
2022/04/24 14:07:55;;;;;;;6.70;3.45;;;;;;;;;;5039255;28;20049;-68
2022/04/24 14:10:21;;;;;;;8.25;3.85;;;;;;;;;;5036779;28;20060;-68
2022/04/24 14:12:47;;;;;;;11.73;3.65;;;;;;;;;;5036937;28;20071;-68
2022/04/24 14:15:13;;;;;;;7.20;3.38;;;;;;;;;;5042298;28;20073;-68
2022/04/24 14:17:38;;;;;;;7.93;3.40;;;;;;;;;;5035795;28;20124;-68
2022/04/24 14:20:05;;;;;;;7.75;2.75;;;;;;;;;;5033413;28;20029;-68
2022/04/24 14:22:31;;;;;;;5.82;3.05;;;;;;;;;;5035766;28;20052;-68
2022/04/24 14:24:56;;;;;;;6.65;2.70;;;;;;;;;;5035343;28;20477;-68
2022/04/24 14:27:22;;;;;;;6.28;3.17;;;;;;;;;;5035436;28;20445;-68
2022/04/24 14:29:47;;;;;;;8.48;3.17;;;;;;;;;;5032526;28;20037;-69
2022/04/24 14:32:14;;;;;;;7.38;3.17;;;;;;;;;;5035435;28;20538;-68
2022/04/24 14:34:43;;;;;;;5.13;2.85;;;;;;;;;;5035108;28;20080;-68
2022/04/24 14:37:10;;;;;;;6.72;3.03;;;;;;;;;;5034818;28;20484;-68
2022/04/24 14:39:35;;;;;;;7.13;3.33;;;;;;;;;;5034763;28;20033;-68